createdAt,value
2018-12-14T00:01:41.641Z,-15.09
2018-12-14T00:04:07.796Z,-15.07
2018-12-14T00:06:33.984Z,-15.03
2018-12-14T00:09:00.116Z,-14.97
2018-12-14T00:11:26.299Z,-14.91
2018-12-14T00:13:52.471Z,-14.96
2018-12-14T00:16:18.616Z,-15.15
2018-12-14T00:18:44.757Z,-14.88
2018-12-14T00:21:10.972Z,-14.80
2018-12-14T00:23:37.122Z,-14.75
2018-12-14T00:26:03.298Z,-14.72
2018-12-14T00:28:29.463Z,-14.67
2018-12-14T00:30:56.199Z,-14.60
2018-12-14T00:33:22.349Z,-14.57
2018-12-14T00:35:48.727Z,-14.61
2018-12-14T00:38:14.872Z,-14.57
2018-12-14T00:40:41.025Z,-14.53
2018-12-14T00:43:07.197Z,-14.52
2018-12-14T00:45:33.367Z,-14.50
2018-12-14T00:47:59.521Z,-14.53
2018-12-14T00:50:25.650Z,-14.42
2018-12-14T00:52:51.795Z,-14.42
2018-12-14T00:55:17.935Z,-14.41
2018-12-14T00:57:44.076Z,-14.42
2018-12-14T01:00:10.719Z,-14.38
2018-12-14T01:02:37.032Z,-14.37
2018-12-14T01:05:04.728Z,-14.34
2018-12-14T01:07:30.858Z,-14.40
2018-12-14T01:09:56.997Z,-14.42
2018-12-14T01:12:23.172Z,-14.48
2018-12-14T01:14:49.348Z,-14.48
2018-12-14T01:17:15.579Z,-14.48
2018-12-14T01:19:41.783Z,-14.55
2018-12-14T01:22:07.951Z,-14.57
2018-12-14T01:24:34.110Z,-14.55
2018-12-14T01:27:01.059Z,-14.53
2018-12-14T01:29:27.235Z,-14.63
2018-12-14T01:31:53.396Z,-14.68
2018-12-14T01:34:19.578Z,-14.73
2018-12-14T01:36:45.726Z,-14.71
2018-12-14T01:39:11.910Z,-14.68
2018-12-14T01:41:38.056Z,-14.69
2018-12-14T01:44:04.237Z,-14.63
2018-12-14T01:46:30.387Z,-14.66
2018-12-14T01:48:56.540Z,-14.68
2018-12-14T01:51:22.678Z,-14.70
2018-12-14T01:53:48.854Z,-14.67
2018-12-14T01:56:15.026Z,-14.65
2018-12-14T01:58:41.301Z,-14.69
2018-12-14T02:01:07.460Z,-14.76
2018-12-14T02:03:33.604Z,-14.71
2018-12-14T02:05:59.747Z,-14.68
2018-12-14T02:08:25.915Z,-14.60
2018-12-14T02:10:52.090Z,-14.55
2018-12-14T02:13:18.254Z,-14.50
2018-12-14T02:15:44.539Z,-14.47
2018-12-14T02:18:10.707Z,-14.41
2018-12-14T02:20:36.892Z,-14.36
2018-12-14T02:23:03.080Z,-14.29
2018-12-14T02:25:29.249Z,-14.30
2018-12-14T02:27:55.383Z,-14.31
2018-12-14T02:30:35.726Z,-14.27
2018-12-14T02:33:01.895Z,-14.27
2018-12-14T02:35:28.048Z,-14.34
2018-12-14T02:37:54.456Z,-14.41
2018-12-14T02:40:20.624Z,-14.43
2018-12-14T02:42:46.778Z,-17.47
2018-12-14T02:45:12.971Z,-14.43
2018-12-14T02:47:39.120Z,-14.42
2018-12-14T02:50:05.500Z,-14.38
2018-12-14T02:52:31.655Z,-14.32
2018-12-14T02:54:58.682Z,-14.26
2018-12-14T02:57:24.830Z,-14.17
2018-12-14T02:59:50.979Z,-14.07
2018-12-14T03:02:17.178Z,-13.99
2018-12-14T03:04:43.357Z,-13.84
2018-12-14T03:07:09.511Z,-13.63
2018-12-14T03:09:35.641Z,-13.44
2018-12-14T03:12:01.800Z,-13.22
2018-12-14T03:14:27.942Z,-13.05
2018-12-14T03:16:54.500Z,-12.84
2018-12-14T03:19:20.696Z,-12.73
2018-12-14T03:21:46.872Z,-12.45
2018-12-14T03:24:13.027Z,-12.27
2018-12-14T03:26:39.184Z,-11.96
2018-12-14T03:29:05.365Z,-11.88
2018-12-14T03:31:31.537Z,-11.52
2018-12-14T03:33:57.691Z,-11.22
2018-12-14T03:36:23.875Z,-11.00
2018-12-14T03:38:50.026Z,-10.44
2018-12-14T03:41:16.169Z,-10.48
2018-12-14T03:43:42.317Z,-10.47
2018-12-14T03:46:08.458Z,-10.53
2018-12-14T03:48:34.744Z,-10.60
2018-12-14T03:51:00.863Z,-10.69
2018-12-14T03:53:27.032Z,-10.63
2018-12-14T03:55:53.179Z,-10.70
2018-12-14T03:58:19.476Z,-10.90
2018-12-14T04:00:45.871Z,-10.90
2018-12-14T04:03:12.081Z,-10.98
2018-12-14T04:05:38.476Z,-11.09
2018-12-14T04:08:04.620Z,-11.15
2018-12-14T04:10:30.765Z,-11.24
2018-12-14T04:12:56.896Z,-10.99
2018-12-14T04:15:23.065Z,-10.99
2018-12-14T04:17:49.223Z,-10.97
2018-12-14T04:20:15.363Z,-10.74
2018-12-14T04:22:41.559Z,-10.56
2018-12-14T04:25:07.705Z,-10.32
2018-12-14T04:27:33.843Z,-9.91
2018-12-14T04:29:59.976Z,-9.70
2018-12-14T04:32:26.141Z,-9.29
2018-12-14T04:34:52.288Z,-9.16
2018-12-14T04:37:18.472Z,-8.82
2018-12-14T04:39:44.627Z,-8.78
2018-12-14T04:42:10.752Z,-8.75
2018-12-14T04:44:37.763Z,-8.62
2018-12-14T04:47:04.167Z,-8.51
2018-12-14T04:49:30.617Z,-8.45
2018-12-14T04:51:56.765Z,-8.43
2018-12-14T04:54:23.118Z,-8.42
2018-12-14T04:56:49.260Z,-8.40
2018-12-14T04:59:15.383Z,-8.30
2018-12-14T05:01:41.512Z,-8.04
2018-12-14T05:04:07.664Z,-7.93
2018-12-14T05:06:33.850Z,-7.94
2018-12-14T05:08:59.995Z,-7.92
2018-12-14T05:11:26.135Z,-7.83
2018-12-14T05:13:52.299Z,-7.81
2018-12-14T05:16:18.406Z,-7.74
2018-12-14T05:18:44.535Z,-7.75
2018-12-14T05:21:10.679Z,-7.75
2018-12-14T05:23:36.795Z,-7.63
2018-12-14T05:26:02.937Z,-7.66
2018-12-14T05:28:29.056Z,-7.66
2018-12-14T05:30:55.214Z,-7.70
2018-12-14T05:33:21.356Z,-7.69
2018-12-14T05:35:47.514Z,-7.65
2018-12-14T05:38:13.626Z,-7.64
2018-12-14T05:40:39.775Z,-7.73
2018-12-14T05:43:05.892Z,-7.82
2018-12-14T05:45:32.035Z,-7.92
2018-12-14T05:47:58.170Z,-7.99
2018-12-14T05:50:24.326Z,-8.16
2018-12-14T05:52:50.478Z,-8.14
2018-12-14T05:55:16.620Z,-8.20
2018-12-14T05:57:42.741Z,-8.26
2018-12-14T06:00:11.079Z,-8.35
2018-12-14T06:02:37.200Z,-8.37
2018-12-14T06:05:04.410Z,-8.42
2018-12-14T06:07:30.551Z,-8.46
2018-12-14T06:09:56.700Z,-8.52
2018-12-14T06:12:23.004Z,-8.46
2018-12-14T06:14:49.134Z,-8.33
2018-12-14T06:17:15.278Z,-8.27
2018-12-14T06:19:41.415Z,-8.23
2018-12-14T06:22:07.547Z,-8.20
2018-12-14T06:24:33.674Z,-8.15
2018-12-14T06:26:59.821Z,-8.15
2018-12-14T06:29:25.944Z,-8.12
2018-12-14T06:31:52.098Z,-8.06
2018-12-14T06:34:18.237Z,-8.08
2018-12-14T06:36:44.389Z,-8.06
2018-12-14T06:39:10.533Z,-8.02
2018-12-14T06:41:36.828Z,-8.01
2018-12-14T06:44:02.997Z,-8.03
2018-12-14T06:46:30.102Z,-8.02
2018-12-14T06:48:56.235Z,-8.04
2018-12-14T06:51:22.379Z,-8.03
2018-12-14T06:53:48.515Z,-8.05
2018-12-14T06:56:14.639Z,-8.03
2018-12-14T06:58:40.793Z,-8.02
2018-12-14T07:01:06.957Z,-8.03
2018-12-14T07:03:33.215Z,-8.06
2018-12-14T07:05:59.347Z,-8.09
2018-12-14T07:08:25.497Z,-8.13
2018-12-14T07:10:51.795Z,-8.16
2018-12-14T07:13:21.811Z,-8.22
2018-12-14T07:15:46.123Z,-8.27
2018-12-14T07:18:12.301Z,-8.33
2018-12-14T07:20:38.679Z,-8.41
2018-12-14T07:23:04.824Z,-8.45
2018-12-14T07:25:30.952Z,-8.51
2018-12-14T07:27:57.223Z,-8.58
2018-12-14T07:30:23.378Z,-8.65
2018-12-14T07:32:49.686Z,-8.76
2018-12-14T07:35:15.843Z,-8.79
2018-12-14T07:37:41.985Z,-8.86
2018-12-14T07:40:08.143Z,-8.98
2018-12-14T07:42:34.283Z,-9.02
2018-12-14T07:45:00.422Z,-9.05
2018-12-14T07:47:26.578Z,-9.15
2018-12-14T07:49:52.731Z,-9.28
2018-12-14T07:52:18.894Z,-9.49
2018-12-14T07:54:45.056Z,-9.70
2018-12-14T07:57:11.201Z,-9.83
2018-12-14T07:59:37.346Z,-10.19
2018-12-14T08:02:03.489Z,-10.84
2018-12-14T08:04:29.875Z,-11.33
2018-12-14T08:06:56.639Z,-11.68
2018-12-14T08:09:22.766Z,-11.82
2018-12-14T08:11:48.896Z,-11.86
2018-12-14T08:14:15.049Z,-11.95
2018-12-14T08:16:41.176Z,-12.52
2018-12-14T08:19:07.306Z,-12.17
2018-12-14T08:21:33.440Z,-12.24
2018-12-14T08:23:59.587Z,-12.18
2018-12-14T08:26:25.716Z,-12.16
2018-12-14T08:28:51.847Z,-12.20
2018-12-14T08:31:17.978Z,-12.18
2018-12-14T08:33:44.115Z,-12.20
2018-12-14T08:36:10.240Z,-12.49
2018-12-14T08:38:36.382Z,-12.74
2018-12-14T08:41:02.542Z,-12.85
2018-12-14T08:43:28.663Z,-12.91
2018-12-14T08:45:54.780Z,-12.92
2018-12-14T08:48:21.073Z,-12.93
2018-12-14T08:50:47.373Z,-12.89
2018-12-14T08:53:13.752Z,-12.84
2018-12-14T08:55:39.911Z,-12.77
2018-12-14T08:58:06.069Z,-12.81
2018-12-14T09:00:32.220Z,-12.80
2018-12-14T09:02:58.349Z,-12.90
2018-12-14T09:05:24.526Z,-12.90
2018-12-14T09:07:50.641Z,-12.92
2018-12-14T09:10:16.795Z,-12.97
2018-12-14T09:12:42.952Z,-12.99
2018-12-14T09:15:09.110Z,-13.06
2018-12-14T09:17:35.248Z,-13.07
2018-12-14T09:20:01.654Z,-13.18
2018-12-14T09:22:27.890Z,-13.24
2018-12-14T09:24:54.067Z,-13.28
2018-12-14T09:27:20.215Z,-13.32
2018-12-14T09:29:46.346Z,-13.35
2018-12-14T09:32:12.494Z,-13.45
2018-12-14T09:34:39.225Z,-13.47
2018-12-14T09:37:05.375Z,-13.49
2018-12-14T09:39:31.509Z,-13.43
2018-12-14T09:41:57.643Z,-13.46
2018-12-14T09:44:23.765Z,-13.56
2018-12-14T09:46:49.901Z,-13.61
2018-12-14T09:49:16.055Z,-13.64
2018-12-14T09:51:42.213Z,-13.68
2018-12-14T09:54:08.331Z,-13.73
2018-12-14T09:56:34.462Z,-13.75
2018-12-14T09:59:00.596Z,-13.70
2018-12-14T10:01:26.729Z,-13.66
2018-12-14T10:03:53.096Z,-13.62
2018-12-14T10:06:19.227Z,-13.54
2018-12-14T10:08:45.378Z,-13.52
2018-12-14T10:11:11.547Z,-13.50
2018-12-14T10:13:37.712Z,-13.47
2018-12-14T10:16:04.025Z,-13.42
2018-12-14T10:18:30.311Z,-13.47
2018-12-14T10:20:56.454Z,-13.46
2018-12-14T10:23:22.603Z,-13.47
2018-12-14T10:25:48.761Z,-13.53
2018-12-14T10:28:14.916Z,-13.60
2018-12-14T10:30:41.039Z,-13.67
2018-12-14T10:33:07.196Z,-13.69
2018-12-14T10:35:33.369Z,-13.67
2018-12-14T10:37:59.556Z,-13.59
2018-12-14T10:40:25.726Z,-13.55
2018-12-14T10:42:51.866Z,-13.50
2018-12-14T10:45:18.151Z,-13.51
2018-12-14T10:47:44.288Z,-13.54
2018-12-14T10:50:11.168Z,-13.55
2018-12-14T10:52:37.297Z,-13.57
2018-12-14T10:55:04.797Z,-13.50
2018-12-14T10:57:32.235Z,-13.48
2018-12-14T10:59:58.427Z,-13.49
2018-12-14T11:02:24.673Z,-13.49
2018-12-14T11:04:50.813Z,-13.52
2018-12-14T11:07:16.951Z,-13.56
2018-12-14T11:09:43.105Z,-13.54
2018-12-14T11:12:09.274Z,-13.54
2018-12-14T11:14:35.415Z,-13.50
2018-12-14T11:17:01.563Z,-13.48
2018-12-14T11:19:27.743Z,-13.54
2018-12-14T11:21:53.867Z,-13.56
2018-12-14T11:24:20.015Z,-13.54
2018-12-14T11:26:46.133Z,-13.49
2018-12-14T11:29:12.283Z,-13.43
2018-12-14T11:31:38.430Z,-13.41
2018-12-14T11:34:04.580Z,-13.38
2018-12-14T11:36:30.867Z,-13.35
2018-12-14T11:38:57.009Z,-13.34
2018-12-14T11:41:23.200Z,-13.36
2018-12-14T11:43:49.318Z,-13.34
2018-12-14T11:46:15.476Z,-13.32
2018-12-14T11:48:41.631Z,-13.28
2018-12-14T11:51:09.142Z,-13.28
2018-12-14T11:53:35.297Z,-13.22
2018-12-14T11:56:01.476Z,-13.27
2018-12-14T11:58:27.617Z,-13.38
2018-12-14T12:00:53.790Z,-13.40
2018-12-14T12:03:19.933Z,-13.53
2018-12-14T12:05:46.098Z,-13.69
2018-12-14T12:08:12.811Z,-13.81
2018-12-14T12:10:38.964Z,-13.91
2018-12-14T12:13:05.129Z,-13.97
2018-12-14T12:15:31.286Z,-14.04
2018-12-14T12:17:57.433Z,-14.11
2018-12-14T12:20:23.568Z,-14.15
2018-12-14T12:22:49.721Z,-14.16
2018-12-14T12:25:15.873Z,-14.17
2018-12-14T12:27:42.074Z,-14.22
2018-12-14T12:30:09.231Z,-14.15
2018-12-14T12:32:35.392Z,-14.09
2018-12-14T12:35:01.673Z,-14.06
2018-12-14T12:37:27.905Z,-14.07
2018-12-14T12:39:54.065Z,-14.08
2018-12-14T12:42:20.223Z,-14.11
2018-12-14T12:44:46.365Z,-14.04
2018-12-14T12:47:12.522Z,-14.01
2018-12-14T12:49:38.807Z,-13.97
2018-12-14T12:52:05.034Z,-14.01
2018-12-14T12:54:31.211Z,-14.03
2018-12-14T12:56:57.360Z,-14.11
2018-12-14T12:59:24.671Z,-14.19
2018-12-14T13:01:51.676Z,-14.31
2018-12-14T13:04:17.831Z,-14.34
2018-12-14T13:06:44.017Z,-14.36
2018-12-14T13:09:10.189Z,-14.41
2018-12-14T13:11:36.336Z,-14.53
2018-12-14T13:14:02.558Z,-14.53
2018-12-14T13:16:28.686Z,-14.61
2018-12-14T13:18:54.854Z,-14.69
2018-12-14T13:21:21.021Z,-14.81
2018-12-14T13:23:47.206Z,-14.87
2018-12-14T13:26:13.932Z,-14.89
2018-12-14T13:28:40.251Z,-14.86
2018-12-14T13:31:06.417Z,-14.83
2018-12-14T13:33:32.805Z,-14.76
2018-12-14T13:35:58.980Z,-14.73
2018-12-14T13:38:25.118Z,-14.79
2018-12-14T13:40:51.267Z,-14.78
2018-12-14T13:43:17.538Z,-14.75
2018-12-14T13:45:43.719Z,-14.80
2018-12-14T13:48:09.931Z,-14.82
2018-12-14T13:50:36.199Z,-14.79
2018-12-14T13:53:02.401Z,-14.88
2018-12-14T13:55:28.564Z,-14.94
2018-12-14T13:57:54.739Z,-14.95
2018-12-14T14:00:21.648Z,-14.97
2018-12-14T14:02:47.952Z,-14.93
2018-12-14T14:05:14.119Z,-14.93
2018-12-14T14:07:40.312Z,-14.92
2018-12-14T14:10:06.603Z,-14.83
2018-12-14T14:12:32.767Z,-14.79
2018-12-14T14:14:59.158Z,-14.86
2018-12-14T14:17:25.301Z,-14.88
2018-12-14T14:19:52.364Z,-14.89
2018-12-14T14:22:18.630Z,-14.94
2018-12-14T14:24:44.772Z,-14.96
2018-12-14T14:27:10.935Z,-15.03
2018-12-14T14:29:37.109Z,-14.97
2018-12-14T14:32:03.265Z,-14.98
2018-12-14T14:34:29.422Z,-15.07
2018-12-14T14:36:55.634Z,-15.05
2018-12-14T14:39:21.788Z,-15.03
2018-12-14T14:41:47.936Z,-15.00
2018-12-14T14:44:14.948Z,-15.01
2018-12-14T14:46:41.106Z,-15.00
2018-12-14T14:49:07.295Z,-15.04
2018-12-14T14:51:33.719Z,-15.05
2018-12-14T14:53:59.861Z,-15.05
2018-12-14T14:56:26.060Z,-15.15
2018-12-14T14:58:52.254Z,-15.29
2018-12-14T15:01:18.463Z,-15.28
2018-12-14T15:03:44.614Z,-15.38
2018-12-14T15:06:10.783Z,-15.42
2018-12-14T15:08:36.944Z,-15.40
2018-12-14T15:11:03.140Z,-15.35
2018-12-14T15:13:29.350Z,-15.40
2018-12-14T15:15:55.534Z,-15.45
2018-12-14T15:18:21.689Z,-15.48
2018-12-14T15:20:47.857Z,-15.45
2018-12-14T15:23:14.023Z,-15.39
2018-12-14T15:25:40.204Z,-15.52
2018-12-14T15:28:06.348Z,-15.58
2018-12-14T15:30:32.517Z,-15.55
2018-12-14T15:32:58.662Z,-15.61
2018-12-14T15:35:24.960Z,-15.73
2018-12-14T15:37:51.243Z,-15.80
2018-12-14T15:40:17.371Z,-15.91
2018-12-14T15:42:43.506Z,-15.96
2018-12-14T15:45:13.135Z,-16.03
2018-12-14T15:47:37.848Z,-16.10
2018-12-14T15:50:04.263Z,-16.19
2018-12-14T15:52:30.515Z,-16.26
2018-12-14T15:54:56.687Z,-16.29
2018-12-14T15:57:22.827Z,-16.26
2018-12-14T15:59:48.992Z,-16.21
2018-12-14T16:02:15.165Z,-16.12
2018-12-14T16:04:41.303Z,-16.05
2018-12-14T16:07:07.605Z,-16.08
2018-12-14T16:09:33.768Z,-16.01
2018-12-14T16:11:59.971Z,-15.96
2018-12-14T16:14:26.316Z,-15.91
2018-12-14T16:16:52.509Z,-15.82
2018-12-14T16:19:18.708Z,-15.76
2018-12-14T16:21:45.004Z,-16.00
2018-12-14T16:24:11.195Z,-16.17
2018-12-14T16:26:37.395Z,-16.25
2018-12-14T16:29:03.535Z,-16.15
2018-12-14T16:31:29.949Z,-16.02
2018-12-14T16:33:56.142Z,-16.02
2018-12-14T16:36:22.299Z,-16.04
2018-12-14T16:38:48.455Z,-16.10
2018-12-14T16:41:14.614Z,-16.19
2018-12-14T16:43:40.776Z,-16.30
2018-12-14T16:46:06.943Z,-16.40
2018-12-14T16:48:33.130Z,-16.43
2018-12-14T16:50:59.307Z,-16.39
2018-12-14T16:53:25.513Z,-16.25
2018-12-14T16:55:51.654Z,-16.15
2018-12-14T16:58:17.804Z,-16.18
2018-12-14T17:00:43.991Z,-16.21
2018-12-14T17:03:10.151Z,-16.19
2018-12-14T17:05:36.317Z,-16.22
2018-12-14T17:08:02.628Z,-16.25
2018-12-14T17:10:28.759Z,-16.23
2018-12-14T17:12:54.932Z,-16.23
2018-12-14T17:15:21.104Z,-16.20
2018-12-14T17:17:47.309Z,-16.20
2018-12-14T17:20:13.476Z,-16.28
2018-12-14T17:22:39.675Z,-16.26
2018-12-14T17:25:06.256Z,-16.23
2018-12-14T17:27:32.423Z,-16.22
2018-12-14T17:29:58.591Z,-16.24
2018-12-14T17:32:24.732Z,-16.21
2018-12-14T17:34:50.888Z,-16.19
2018-12-14T17:37:17.028Z,-16.16
2018-12-14T17:39:43.232Z,-16.19
2018-12-14T17:42:09.419Z,-16.14
2018-12-14T17:44:35.592Z,-16.21
2018-12-14T17:47:01.991Z,-16.20
2018-12-14T17:49:28.123Z,-16.17
2018-12-14T17:51:54.314Z,-16.21
2018-12-14T17:54:20.443Z,-16.24
2018-12-14T17:56:46.604Z,-16.28
2018-12-14T17:59:12.754Z,-16.23
2018-12-14T18:01:39.168Z,-16.13
2018-12-14T18:04:05.328Z,-16.07
2018-12-14T18:06:31.493Z,-16.17
2018-12-14T18:08:57.657Z,-16.25
2018-12-14T18:11:23.830Z,-16.07
2018-12-14T18:13:50.035Z,-15.84
2018-12-14T18:16:16.651Z,-15.67
2018-12-14T18:18:42.894Z,-15.58
2018-12-14T18:21:09.064Z,-15.50
2018-12-14T18:23:35.195Z,-15.33
2018-12-14T18:26:01.347Z,-15.20
2018-12-14T18:28:27.492Z,-15.16
2018-12-14T18:30:53.787Z,-15.13
2018-12-14T18:33:19.945Z,-15.19
2018-12-14T18:35:46.143Z,-15.18
2018-12-14T18:38:12.298Z,-15.08
2018-12-14T18:40:38.489Z,-14.98
2018-12-14T18:43:04.659Z,-14.85
2018-12-14T18:45:30.819Z,-14.67
2018-12-14T18:47:56.983Z,-14.57
2018-12-14T18:50:23.151Z,-14.50
2018-12-14T18:52:49.330Z,-14.45
2018-12-14T18:55:15.488Z,-14.38
2018-12-14T18:57:41.660Z,-14.31
2018-12-14T19:00:08.464Z,-14.27
2018-12-14T19:02:34.635Z,-14.21
2018-12-14T19:05:00.811Z,-14.12
2018-12-14T19:07:26.984Z,-13.96
2018-12-14T19:09:53.387Z,-13.76
2018-12-14T19:12:20.209Z,-13.61
2018-12-14T19:14:46.358Z,-13.59
2018-12-14T19:17:12.504Z,-13.53
2018-12-14T19:19:38.699Z,-13.60
2018-12-14T19:22:04.836Z,-13.31
2018-12-14T19:24:30.999Z,-13.21
2018-12-14T19:26:57.198Z,-13.13
2018-12-14T19:29:23.334Z,-13.01
2018-12-14T19:31:49.499Z,-12.89
2018-12-14T19:34:15.647Z,-12.79
2018-12-14T19:36:41.837Z,-12.67
2018-12-14T19:39:08.244Z,-12.50
2018-12-14T19:41:34.393Z,-12.35
2018-12-14T19:44:00.535Z,-12.35
2018-12-14T19:46:26.712Z,-12.30
2018-12-14T19:48:52.855Z,-12.20
2018-12-14T19:51:19.002Z,-12.13
2018-12-14T19:53:45.147Z,-12.15
2018-12-14T19:56:11.354Z,-12.22
2018-12-14T19:58:37.526Z,-12.27
2018-12-14T20:01:03.677Z,-12.32
2018-12-14T20:03:29.867Z,-12.31
2018-12-14T20:05:56.015Z,-12.27
2018-12-14T20:08:22.179Z,-12.23
2018-12-14T20:10:48.642Z,-12.22
2018-12-14T20:13:15.033Z,-12.20
2018-12-14T20:15:41.179Z,-12.16
2018-12-14T20:18:07.353Z,-12.14
2018-12-14T20:20:34.552Z,-12.07
2018-12-14T20:23:00.707Z,-12.05
2018-12-14T20:25:27.627Z,-12.02
2018-12-14T20:27:53.783Z,-11.93
2018-12-14T20:30:20.168Z,-11.91
2018-12-14T20:32:46.326Z,-11.88
2018-12-14T20:35:12.805Z,-11.79
2018-12-14T20:37:38.964Z,-11.73
2018-12-14T20:40:05.465Z,-11.65
2018-12-14T20:42:31.658Z,-11.61
2018-12-14T20:44:57.801Z,-11.56
2018-12-14T20:47:23.935Z,-11.52
2018-12-14T20:49:50.116Z,-11.47
2018-12-14T20:52:16.331Z,-11.43
2018-12-14T20:54:42.475Z,-11.40
2018-12-14T20:57:08.627Z,-11.39
2018-12-14T20:59:34.749Z,-11.38
2018-12-14T21:02:00.890Z,-11.31
2018-12-14T21:04:27.054Z,-11.27
2018-12-14T21:06:53.223Z,-11.27
2018-12-14T21:09:19.395Z,-11.33
2018-12-14T21:11:45.546Z,-11.33
2018-12-14T21:14:11.688Z,-11.38
2018-12-14T21:16:38.429Z,-11.26
2018-12-14T21:19:04.604Z,-11.17
2018-12-14T21:21:30.751Z,-11.18
2018-12-14T21:23:56.912Z,-11.19
2018-12-14T21:26:23.067Z,-11.21
2018-12-14T21:28:49.219Z,-11.23
2018-12-14T21:31:15.351Z,-11.22
2018-12-14T21:33:41.511Z,-11.14
2018-12-14T21:36:07.627Z,-11.12
2018-12-14T21:38:33.789Z,-11.08
2018-12-14T21:40:59.921Z,-10.98
2018-12-14T21:43:26.979Z,-10.91
2018-12-14T21:45:53.101Z,-10.85
2018-12-14T21:48:19.257Z,-10.84
2018-12-14T21:50:45.407Z,-10.79
2018-12-14T21:53:14.611Z,-10.64
2018-12-14T21:55:39.766Z,-10.54
2018-12-14T21:58:05.923Z,-10.48
2018-12-14T22:00:32.063Z,-10.41
2018-12-14T22:02:58.211Z,-10.32
2018-12-14T22:05:24.366Z,-10.26
2018-12-14T22:07:50.503Z,-10.18
2018-12-14T22:10:16.654Z,-10.14
2018-12-14T22:12:42.776Z,-10.13
2018-12-14T22:15:09.061Z,-10.11
2018-12-14T22:17:35.182Z,-10.06
2018-12-14T22:20:01.384Z,-9.99
2018-12-14T22:22:27.544Z,-9.94
2018-12-14T22:24:53.663Z,-9.83
2018-12-14T22:27:19.797Z,-9.76
2018-12-14T22:29:45.958Z,-9.69
2018-12-14T22:32:12.119Z,-9.67
2018-12-14T22:34:38.240Z,-9.65
2018-12-14T22:37:04.358Z,-9.66
2018-12-14T22:39:30.876Z,-9.61
2018-12-14T22:41:57.574Z,-9.57
2018-12-14T22:44:23.727Z,-9.53
2018-12-14T22:46:49.867Z,-9.53
2018-12-14T22:49:16.023Z,-9.44
2018-12-14T22:51:42.154Z,-9.37
2018-12-14T22:54:08.342Z,-9.26
2018-12-14T22:56:34.487Z,-9.23
2018-12-14T22:59:00.615Z,-9.20
2018-12-14T23:01:26.912Z,-9.15
2018-12-14T23:03:53.048Z,-9.10
2018-12-14T23:06:19.187Z,-9.07
2018-12-14T23:08:45.310Z,-8.99
2018-12-14T23:11:11.460Z,-8.97
2018-12-14T23:13:37.597Z,-8.97
2018-12-14T23:16:03.723Z,-8.91
2018-12-14T23:18:29.840Z,-8.81
2018-12-14T23:20:55.980Z,-8.70
2018-12-14T23:23:22.151Z,-8.66
2018-12-14T23:25:48.617Z,-8.67
2018-12-14T23:28:15.870Z,-8.64
2018-12-14T23:30:42.020Z,-8.56
2018-12-14T23:33:08.168Z,-8.56
2018-12-14T23:35:34.337Z,-8.52
2018-12-14T23:38:00.500Z,-8.48
2018-12-14T23:40:26.651Z,-8.45
2018-12-14T23:42:52.810Z,-8.43
2018-12-14T23:45:18.919Z,-8.40
2018-12-14T23:47:45.091Z,-8.35
2018-12-14T23:50:11.251Z,-8.33
2018-12-14T23:52:37.420Z,-8.30
2018-12-14T23:55:03.714Z,-8.24
2018-12-14T23:57:29.866Z,-8.20
2018-12-14T23:59:56.003Z,-8.17
